SWR1929 LPPR-LPPT
Flight info
| Callsign | SWR1929 |
|---|---|
| Flight time | N/A |
| Altitude | 37000 |
| Route | MANIK DCT ABRIL DCT XAMAX |
| Aircraft | MD11/H-SDE1E2E3FGHIJ2J3J4J5M1RWXY/LB1D1 |
Departure
| Time | 2026-05-07 16:24 |
|---|---|
| Airport | Francisco de Sá Carneiro Airport (LPPR) |
Arrival
| Time | N/A |
|---|---|
| Airport | Lisbon Humberto Delgado Airport (LPPT) |
| Time | Latitude | Longitude | Altitude | Speed | Heading |
|---|---|---|---|---|---|
| 2026-05-07 15:35 | 41.23408 | -8.67205 | 188 ft | 0 kts | 49° |
| 2026-05-07 16:13 | 41.23405 | -8.67209 | 250 ft | 3 kts | 49° |
| 2026-05-07 16:14 | 41.23388 | -8.67236 | 250 ft | 4 kts | 53° |
| 2026-05-07 16:14 | 41.23374 | -8.67265 | 250 ft | 4 kts | 74° |
| 2026-05-07 16:14 | 41.23371 | -8.67295 | 249 ft | 4 kts | 96° |
| 2026-05-07 16:14 | 41.23376 | -8.67327 | 247 ft | 4 kts | 118° |
| 2026-05-07 16:15 | 41.23391 | -8.67353 | 245 ft | 4 kts | 147° |
| 2026-05-07 16:15 | 41.23414 | -8.67369 | 245 ft | 5 kts | 166° |
| 2026-05-07 16:15 | 41.23438 | -8.67375 | 245 ft | 3 kts | 169° |
| 2026-05-07 16:15 | 41.23439 | -8.67376 | 245 ft | 4 kts | 169° |
| 2026-05-07 16:20 | 41.23436 | -8.67375 | 244 ft | 2 kts | 168° |
| 2026-05-07 16:20 | 41.23413 | -8.67368 | 244 ft | 5 kts | 168° |
| 2026-05-07 16:20 | 41.23394 | -8.67363 | 244 ft | 2 kts | 169° |
| 2026-05-07 16:20 | 41.23371 | -8.67364 | 244 ft | 5 kts | 189° |
| 2026-05-07 16:21 | 41.23340 | -8.67399 | 243 ft | 6 kts | 239° |
| 2026-05-07 16:21 | 41.23328 | -8.67460 | 243 ft | 7 kts | 259° |
| 2026-05-07 16:21 | 41.23325 | -8.67481 | 243 ft | 0 kts | 259° |
| 2026-05-07 16:22 | 41.23324 | -8.67490 | 243 ft | 3 kts | 259° |
| 2026-05-07 16:22 | 41.23318 | -8.67533 | 242 ft | 7 kts | 259° |
| 2026-05-07 16:22 | 41.23305 | -8.67617 | 243 ft | 10 kts | 259° |
| 2026-05-07 16:23 | 41.23298 | -8.67698 | 245 ft | 5 kts | 277° |
| 2026-05-07 16:23 | 41.23322 | -8.67743 | 245 ft | 5 kts | 325° |
| 2026-05-07 16:23 | 41.23367 | -8.67752 | 243 ft | 13 kts | 352° |
| 2026-05-07 16:23 | 41.23682 | -8.67831 | 231 ft | 96 kts | 349° |
| 2026-05-07 16:24 | 41.24626 | -8.68076 | 263 ft | 170 kts | 345° |
| 2026-05-07 16:24 | 41.25793 | -8.68363 | 1238 ft | 168 kts | 346° |
| 2026-05-07 16:24 | 41.26928 | -8.68657 | 2311 ft | 169 kts | 345° |
| 2026-05-07 16:24 | 41.28200 | -8.69006 | 2681 ft | 206 kts | 345° |
| 2026-05-07 16:25 | 41.29687 | -8.69443 | 3070 ft | 229 kts | 345° |
| 2026-05-07 16:25 | 41.31301 | -8.70017 | 3356 ft | 249 kts | 333° |
| 2026-05-07 16:25 | 41.32696 | -8.71414 | 3764 ft | 255 kts | 306° |
| 2026-05-07 16:25 | 41.33396 | -8.73522 | 4473 ft | 250 kts | 277° |
| 2026-05-07 16:26 | 41.33298 | -8.75864 | 4840 ft | 262 kts | 251° |
| 2026-05-07 16:26 | 41.32349 | -8.77885 | 5555 ft | 256 kts | 220° |
| 2026-05-07 16:26 | 41.30808 | -8.79037 | 6256 ft | 257 kts | 193° |
| 2026-05-07 16:26 | 41.29029 | -8.79111 | 6915 ft | 259 kts | 172° |
| 2026-05-07 16:27 | 41.27254 | -8.78615 | 7580 ft | 262 kts | 167° |
| 2026-05-07 16:27 | 41.25481 | -8.78024 | 8327 ft | 264 kts | 166° |
| 2026-05-07 16:27 | 41.23682 | -8.77431 | 9087 ft | 267 kts | 166° |
| 2026-05-07 16:27 | 41.21863 | -8.76850 | 9850 ft | 270 kts | 167° |
| 2026-05-07 16:28 | 41.20001 | -8.76272 | 10174 ft | 292 kts | 167° |
| 2026-05-07 16:28 | 41.17928 | -8.75643 | 10316 ft | 319 kts | 167° |
| 2026-05-07 16:28 | 41.15669 | -8.74968 | 10565 ft | 342 kts | 167° |
| 2026-05-07 16:28 | 41.13333 | -8.74278 | 11349 ft | 347 kts | 168° |
| 2026-05-07 16:29 | 41.10952 | -8.73580 | 12133 ft | 353 kts | 168° |
| 2026-05-07 16:29 | 41.08528 | -8.72872 | 12930 ft | 359 kts | 168° |
| 2026-05-07 16:29 | 41.06065 | -8.72156 | 13709 ft | 365 kts | 168° |
| 2026-05-07 16:29 | 41.03563 | -8.71430 | 14415 ft | 370 kts | 168° |
| 2026-05-07 16:30 | 41.01026 | -8.70695 | 15142 ft | 375 kts | 168° |
| 2026-05-07 16:30 | 40.98461 | -8.69953 | 15855 ft | 380 kts | 168° |
| 2026-05-07 16:30 | 40.95864 | -8.69201 | 16555 ft | 384 kts | 168° |
| 2026-05-07 16:30 | 40.93238 | -8.68443 | 17242 ft | 389 kts | 169° |
| 2026-05-07 16:31 | 40.90572 | -8.67673 | 17917 ft | 393 kts | 169° |
| 2026-05-07 16:31 | 40.87882 | -8.66897 | 18531 ft | 398 kts | 169° |
| 2026-05-07 16:31 | 40.85160 | -8.66120 | 19102 ft | 402 kts | 171° |
| 2026-05-07 16:31 | 40.82428 | -8.65557 | 19679 ft | 404 kts | 174° |
| 2026-05-07 16:32 | 40.79619 | -8.65150 | 20244 ft | 408 kts | 176° |
| 2026-05-07 16:32 | 40.76779 | -8.64783 | 20812 ft | 412 kts | 176° |
| 2026-05-07 16:32 | 40.73914 | -8.64404 | 21361 ft | 416 kts | 176° |
| 2026-05-07 16:32 | 40.71014 | -8.63998 | 21798 ft | 422 kts | 176° |
| 2026-05-07 16:33 | 40.68083 | -8.63568 | 22184 ft | 423 kts | 175° |
| 2026-05-07 16:33 | 40.65147 | -8.63123 | 22455 ft | 424 kts | 175° |
| 2026-05-07 16:33 | 40.62210 | -8.62671 | 22723 ft | 426 kts | 175° |
| 2026-05-07 16:33 | 40.59258 | -8.62215 | 22866 ft | 427 kts | 175° |
| 2026-05-07 16:34 | 40.56355 | -8.61763 | 22890 ft | 413 kts | 175° |
| 2026-05-07 16:34 | 40.53504 | -8.61319 | 22894 ft | 412 kts | 175° |
| 2026-05-07 16:34 | 40.50662 | -8.60880 | 22893 ft | 412 kts | 175° |
| 2026-05-07 16:34 | 40.47818 | -8.60441 | 22894 ft | 411 kts | 175° |
| 2026-05-07 16:35 | 40.44979 | -8.60005 | 22892 ft | 411 kts | 175° |
| 2026-05-07 16:35 | 40.42140 | -8.59569 | 22897 ft | 411 kts | 175° |
| 2026-05-07 16:35 | 40.39298 | -8.59132 | 22891 ft | 411 kts | 175° |
| 2026-05-07 16:35 | 40.36465 | -8.58697 | 22896 ft | 410 kts | 175° |
| 2026-05-07 16:36 | 40.33633 | -8.58262 | 22894 ft | 410 kts | 175° |
| 2026-05-07 16:36 | 40.30794 | -8.57825 | 22892 ft | 410 kts | 175° |
| 2026-05-07 16:36 | 40.27962 | -8.57388 | 22893 ft | 410 kts | 175° |
| 2026-05-07 16:36 | 40.25134 | -8.56953 | 22892 ft | 409 kts | 175° |
| 2026-05-07 16:37 | 40.22306 | -8.56518 | 22896 ft | 409 kts | 175° |
| 2026-05-07 16:37 | 40.19475 | -8.56084 | 22893 ft | 409 kts | 175° |
| 2026-05-07 16:37 | 40.16648 | -8.55650 | 22892 ft | 409 kts | 175° |
| 2026-05-07 16:37 | 40.13826 | -8.55218 | 22893 ft | 409 kts | 175° |
| 2026-05-07 16:38 | 40.11039 | -8.54791 | 22892 ft | 409 kts | 175° |
| 2026-05-07 16:38 | 40.08175 | -8.54353 | 22892 ft | 408 kts | 175° |
| 2026-05-07 16:38 | 40.05394 | -8.53927 | 22893 ft | 408 kts | 176° |
| 2026-05-07 16:38 | 40.02565 | -8.53580 | 22893 ft | 407 kts | 178° |
| 2026-05-07 16:39 | 39.99739 | -8.53357 | 22892 ft | 407 kts | 179° |
| 2026-05-07 16:39 | 39.96913 | -8.53187 | 22896 ft | 407 kts | 180° |
| 2026-05-07 16:39 | 39.94090 | -8.53033 | 22897 ft | 406 kts | 180° |
| 2026-05-07 16:39 | 39.91261 | -8.52879 | 22896 ft | 406 kts | 180° |
| 2026-05-07 16:40 | 39.88439 | -8.52721 | 22899 ft | 406 kts | 180° |
| 2026-05-07 16:40 | 39.85615 | -8.52559 | 22896 ft | 406 kts | 180° |
| 2026-05-07 16:40 | 39.82796 | -8.52393 | 22896 ft | 405 kts | 180° |
| 2026-05-07 16:40 | 39.79984 | -8.52231 | 22896 ft | 405 kts | 180° |
| 2026-05-07 16:41 | 39.77180 | -8.52348 | 22892 ft | 402 kts | 190° |
| 2026-05-07 16:41 | 39.74518 | -8.53336 | 22897 ft | 397 kts | 206° |
| 2026-05-07 16:41 | 39.72088 | -8.55044 | 22901 ft | 397 kts | 213° |
| 2026-05-07 16:41 | 39.69783 | -8.57008 | 22899 ft | 396 kts | 215° |
| 2026-05-07 16:42 | 39.67511 | -8.59027 | 22898 ft | 396 kts | 215° |
| 2026-05-07 16:42 | 39.65230 | -8.61034 | 22899 ft | 396 kts | 215° |
| 2026-05-07 16:42 | 39.62936 | -8.63011 | 22898 ft | 396 kts | 214° |
| 2026-05-07 16:42 | 39.60627 | -8.64961 | 22898 ft | 396 kts | 214° |
| 2026-05-07 16:43 | 39.58319 | -8.66912 | 22898 ft | 396 kts | 216° |
| 2026-05-07 16:43 | 39.56096 | -8.69013 | 22900 ft | 394 kts | 218° |
| 2026-05-07 16:43 | 39.53929 | -8.71193 | 22899 ft | 394 kts | 219° |
| 2026-05-07 16:43 | 39.51771 | -8.73389 | 22899 ft | 394 kts | 219° |
| 2026-05-07 16:44 | 39.49633 | -8.75547 | 22898 ft | 394 kts | 219° |
| 2026-05-07 16:44 | 39.47460 | -8.77718 | 22897 ft | 394 kts | 218° |
| 2026-05-07 16:44 | 39.45286 | -8.79871 | 22901 ft | 394 kts | 218° |
| 2026-05-07 16:44 | 39.43099 | -8.82024 | 22903 ft | 394 kts | 218° |
| 2026-05-07 16:45 | 39.40856 | -8.84056 | 22901 ft | 395 kts | 212° |
| 2026-05-07 16:45 | 39.38460 | -8.85780 | 22900 ft | 395 kts | 209° |
| 2026-05-07 16:45 | 39.36010 | -8.87393 | 22903 ft | 395 kts | 208° |
| 2026-05-07 16:45 | 39.33560 | -8.88994 | 22903 ft | 394 kts | 208° |
| 2026-05-07 16:46 | 39.31121 | -8.90619 | 22907 ft | 394 kts | 209° |
| 2026-05-07 16:46 | 39.28694 | -8.92267 | 22902 ft | 394 kts | 209° |
| 2026-05-07 16:46 | 39.26277 | -8.93933 | 22903 ft | 394 kts | 210° |
| 2026-05-07 16:46 | 39.23864 | -8.95609 | 22903 ft | 394 kts | 210° |
| 2026-05-07 16:47 | 39.21451 | -8.97292 | 22904 ft | 394 kts | 210° |
| 2026-05-07 16:47 | 39.19043 | -8.98974 | 22908 ft | 394 kts | 210° |
| 2026-05-07 16:47 | 39.16636 | -9.00655 | 22908 ft | 394 kts | 210° |
| 2026-05-07 16:47 | 39.14227 | -9.02335 | 22907 ft | 393 kts | 210° |
| 2026-05-07 16:48 | 39.11814 | -9.04018 | 22904 ft | 393 kts | 210° |
| 2026-05-07 16:48 | 39.09405 | -9.05697 | 22910 ft | 393 kts | 210° |